Map

Track Data

SID SEASON NUMBER BASIN SUBBASIN NAME ISO_TIME NATURE LAT LON WMO_WIND WMO_PRES WMO_AGENCY TRACK_TYPE DIST2LAND LANDFALL IFLAG USA_AGENCY USA_ATCF_ID USA_LAT USA_LON USA_RECORD USA_STATUS USA_WIND USA_PRES USA_SSHS USA_R34_NE USA_R34_SE USA_R34_SW USA_R34_NW USA_R50_NE USA_R50_SE USA_R50_SW USA_R50_NW USA_R64_NE USA_R64_SE USA_R64_SW USA_R64_NW USA_POCI USA_ROCI USA_RMW USA_EYE TOKYO_LAT TOKYO_LON TOKYO_GRADE TOKYO_WIND TOKYO_PRES TOKYO_R50_DIR TOKYO_R50_LONG TOKYO_R50_SHORT TOKYO_R30_DIR TOKYO_R30_LONG TOKYO_R30_SHORT TOKYO_LAND CMA_LAT CMA_LON CMA_CAT CMA_WIND CMA_PRES HKO_LAT HKO_LON HKO_CAT HKO_WIND HKO_PRES NEWDELHI_LAT NEWDELHI_LON NEWDELHI_GRADE NEWDELHI_WIND NEWDELHI_PRES NEWDELHI_CI NEWDELHI_DP NEWDELHI_POCI REUNION_LAT REUNION_LON REUNION_TYPE REUNION_WIND REUNION_PRES REUNION_TNUM REUNION_CI REUNION_RMW REUNION_R34_NE REUNION_R34_SE REUNION_R34_SW REUNION_R34_NW REUNION_R50_NE REUNION_R50_SE REUNION_R50_SW REUNION_R50_NW REUNION_R64_NE REUNION_R64_SE REUNION_R64_SW REUNION_R64_NW BOM_LAT BOM_LON BOM_TYPE BOM_WIND BOM_PRES BOM_TNUM BOM_CI BOM_RMW BOM_R34_NE BOM_R34_SE BOM_R34_SW BOM_R34_NW BOM_R50_NE BOM_R50_SE BOM_R50_SW BOM_R50_NW BOM_R64_NE BOM_R64_SE BOM_R64_SW BOM_R64_NW BOM_ROCI BOM_POCI BOM_EYE BOM_POS_METHOD BOM_PRES_METHOD NADI_LAT NADI_LON NADI_CAT NADI_WIND NADI_PRES WELLINGTON_LAT WELLINGTON_LON WELLINGTON_WIND WELLINGTON_PRES DS824_LAT DS824_LON DS824_STAGE DS824_WIND DS824_PRES TD9636_LAT TD9636_LON TD9636_STAGE TD9636_WIND TD9636_PRES TD9635_LAT TD9635_LON TD9635_WIND TD9635_PRES TD9635_ROCI NEUMANN_LAT NEUMANN_LON NEUMANN_CLASS NEUMANN_WIND NEUMANN_PRES MLC_LAT MLC_LON MLC_CLASS MLC_WIND MLC_PRES USA_GUST BOM_GUST BOM_GUST_PER REUNION_GUST REUNION_GUST_PER USA_SEAHGT USA_SEARAD_NE USA_SEARAD_SE USA_SEARAD_SW USA_SEARAD_NW STORM_SPEED STORM_DIR
1909001S17069 1909 1 SI MM NOT_NAMED 1909-01-01 06:00:00 NR -17.0000 69.3000 reunion main 1266 1266 _____O________ -1 -17.0000 69.3000 99 9.90000 0 0
1909001S17069 1909 1 SI MM NOT_NAMED 1909-01-01 09:00:00 NR -17.0172 69.2933 main 1266 1266 _____P________ -1 -17.0172 69.2933 99 0 0
1909001S17069 1909 1 SI MM NOT_NAMED 1909-01-01 12:00:00 NR -17.0398 69.2766 main 1266 1252 _____P________ -1 -17.0398 69.2766 99 1 225
1909001S17069 1909 1 SI MM NOT_NAMED 1909-01-01 15:00:00 NR -17.0736 69.2397 main 1252 1252 _____P________ -1 -17.0736 69.2397 99 1 230
1909001S17069 1909 1 SI MM NOT_NAMED 1909-01-01 18:00:00 NR -17.1239 69.1727 main 1252 1239 _____P________ -1 -17.1239 69.1727 99 2 234
1909001S17069 1909 1 SI MM NOT_NAMED 1909-01-01 21:00:00 NR -17.1963 69.0655 main 1239 1215 _____P________ -1 -17.1963 69.0655 99 3 236
1909001S17069 1909 1 SI MM NOT_NAMED 1909-01-02 00:00:00 NR -17.2962 68.9078 main 1215 1191 _____P________ -1 -17.2962 68.9078 99 4 237
1909001S17069 1909 1 SI MM NOT_NAMED 1909-01-02 03:00:00 NR -17.4290 68.6894 main 1191 1154 _____P________ -1 -17.4290 68.6894 99 6 238
1909001S17069 1909 1 SI MM NOT_NAMED 1909-01-02 06:00:00 NR -17.6000 68.4000 reunion main 1154 1117 _____O________ -1 -17.6000 68.4000 99 9.90000 7 238
1909001S17069 1909 1 SI MM NOT_NAMED 1909-01-02 09:00:00 NR -17.8137 68.0331 main 1107 1057 _____P________ -1 -17.8137 68.0331 99 9 238
1909001S17069 1909 1 SI MM NOT_NAMED 1909-01-02 12:00:00 NR -18.0715 67.5980 main 1057 998 _____P________ -1 -18.0715 67.5980 99 10 237
1909001S17069 1909 1 SI MM NOT_NAMED 1909-01-02 15:00:00 NR -18.3743 67.1081 main 998 939 _____P________ -1 -18.3743 67.1081 99 12 236
1909001S17069 1909 1 SI MM NOT_NAMED 1909-01-02 18:00:00 NR -18.7229 66.5767 main 939 868 _____P________ -1 -18.7229 66.5767 99 13 234
1909001S17069 1909 1 SI MM NOT_NAMED 1909-01-02 21:00:00 NR -19.1185 66.0170 main 868 809 _____P________ -1 -19.1185 66.0170 99 14 232
1909001S17069 1909 1 SI MM NOT_NAMED 1909-01-03 00:00:00 NR -19.5622 65.4422 main 798 741 _____P________ -1 -19.5622 65.4422 99 14 229
1909001S17069 1909 1 SI MM NOT_NAMED 1909-01-03 03:00:00 NR -20.0555 64.8655 main 741 677 _____P________ -1 -20.0555 64.8655 99 15 226
1909001S17069 1909 1 SI MM NOT_NAMED 1909-01-03 06:00:00 NR -20.6000 64.3000 reunion main 677 631 _____O________ -1 -20.6000 64.3000 99 9.90000 16 221
1909001S17069 1909 1 SI MM NOT_NAMED 1909-01-03 09:00:00 NR -21.2794 63.7289 main 623 587 _____P________ -1 -21.2794 63.7289 99 18 217
1909001S17069 1909 1 SI MM NOT_NAMED 1909-01-03 12:00:00 NR -22.0277 63.1495 main 581 562 _____P________ -1 -22.0277 63.1495 99 19 215
1909001S17069 1909 1 SI MM NOT_NAMED 1909-01-03 15:00:00 NR -22.8150 62.5751 main 567 557 _____P________ -1 -22.8150 62.5751 99 19 213
1909001S17069 1909 1 SI MM NOT_NAMED 1909-01-03 18:00:00 NR -23.6116 62.0198 main 562 561 _____P________ -1 -23.6116 62.0198 99 19 212
1909001S17069 1909 1 SI MM NOT_NAMED 1909-01-03 21:00:00 NR -24.3878 61.4984 main 585 585 _____P________ -1 -24.3878 61.4984 99 18 211
1909001S17069 1909 1 SI MM NOT_NAMED 1909-01-04 00:00:00 NR -25.1140 61.0269 main 615 615 _____P________ -1 -25.1140 61.0269 99 16 210
1909001S17069 1909 1 SI MM NOT_NAMED 1909-01-04 03:00:00 NR -25.7611 60.6217 main 662 662 _____P________ -1 -25.7611 60.6217 99 14 209
1909001S17069 1909 1 SI MM NOT_NAMED 1909-01-04 06:00:00 NR -26.3000 60.3000 reunion main 700 700 _____O________ -1 -26.3000 60.3000 99 9.90000 11 207
1909001S17069 1909 1 SI MM NOT_NAMED 1909-01-04 09:00:00 NR -26.7098 60.0743 main 734 734 _____P________ -1 -26.7098 60.0743 99 8 205
1909001S17069 1909 1 SI MM NOT_NAMED 1909-01-04 12:00:00 NR -27.0003 59.9381 main 760 760 _____P________ -1 -27.0003 59.9381 99 5 200
1909001S17069 1909 1 SI MM NOT_NAMED 1909-01-04 15:00:00 NR -27.1889 59.8793 main 779 779 _____P________ -1 -27.1889 59.8793 99 3 189
1909001S17069 1909 1 SI MM NOT_NAMED 1909-01-04 18:00:00 NR -27.2929 59.8854 main 788 788 _____P________ -1 -27.2929 59.8854 99 2 156
1909001S17069 1909 1 SI MM NOT_NAMED 1909-01-04 21:00:00 NR -27.3291 59.9435 main 788 788 _____P________ -1 -27.3291 59.9435 99 1 99
1909001S17069 1909 1 SI MM NOT_NAMED 1909-01-05 00:00:00 NR -27.3144 60.0407 main 793 793 _____P________ -1 -27.3144 60.0407 99 2 72
1909001S17069 1909 1 SI MM NOT_NAMED 1909-01-05 03:00:00 NR -27.2658 60.1639 main 801 790 _____P________ -1 -27.2658 60.1639 99 3 63
1909001S17069 1909 1 SI MM NOT_NAMED 1909-01-05 06:00:00 NR -27.2000 60.3000 reunion main 793 _____O________ -1 -27.2000 60.3000 99 9.90000 3 61

About IBTrACS Database

This database is a web-friendly format of International Best Track Archive for Climate Stewardship (IBTrACS), a global best track data archive curated by NOAA dating back to 1842.

Updated: 2021-12-01